Time;durP1;ratioP1;P1;durP2;ratioP2;P2;SDS_P1;SDS_P2;PMS_P1;PMS_P2;Temp;Humidity;BMP_temperature;BMP_pressure;BME280_temperature;BME280_humidity;BME280_pressure;Samples;Min_cycle;Max_cycle;Signal;HPM_P1;HPM_P2
2022/09/27 00:02:06;;;;;;;;;;;;;;;;;;5102752;28;844;-76
2022/09/27 00:04:31;;;;;;;;;;;;;;;;;;5102234;28;1013;-76
2022/09/27 00:06:56;;;;;;;;;;;;;;;;;;5102282;28;1183;-76
2022/09/27 00:09:21;;;;;;;;;;;;;;;;;;5102402;28;806;-76
2022/09/27 00:11:47;;;;;;;;;;;;;;;;;;5102472;28;834;-77
2022/09/27 00:14:13;;;;;;;;;;;;;;;;;;5102212;28;1962;-76
2022/09/27 00:16:39;;;;;;;;;;;;;;;;;;5102011;28;1203;-76
2022/09/27 00:19:05;;;;;;;;;;;;;;;;;;5102164;28;731;-76
2022/09/27 00:21:31;;;;;;;;;;;;;;;;;;5102140;28;850;-77
2022/09/27 00:23:56;;;;;;;;;;;;;;;;;;5102241;28;981;-76
2022/09/27 00:26:22;;;;;;;;;;;;;;;;;;5108428;22;2456;-68
2022/09/27 00:28:47;;;;;;;;;;;;;;;;;;5042286;28;834;-68
2022/09/27 00:31:21;;;;;;;;;;;;;;;;;;5041133;28;1397;-68
2022/09/27 00:33:47;;;;;;;;;;;;;;;;;;5042567;28;1898;-68
2022/09/27 00:36:12;;;;;;;;;;;;;;;;;;5039436;28;1251;-68
2022/09/27 00:38:38;;;;;;;;;;;;;;;;;;5022271;28;803;-68
2022/09/27 00:41:04;;;;;;;;;;;;;;;;;;5022265;28;807;-68
2022/09/27 00:43:41;;;;;;;;;;;;;;;;;;5022506;28;843;-68
2022/09/27 00:46:07;;;;;;;;;;;;;;;;;;5021703;28;1280;-68
2022/09/27 00:48:35;;;;;;;;;;;;;;;;;;5022214;28;855;-68
2022/09/27 00:51:02;;;;;;;;;;;;;;;;;;5021995;28;1013;-68
2022/09/27 00:53:30;;;;;;;;;;;;;;;;;;5021913;28;1961;-68
2022/09/27 00:55:58;;;;;;;;;;;;;;;;;;5021397;28;1258;-68
2022/09/27 00:58:27;;;;;;;;;;;;;;;;;;5021014;28;820;-69
2022/09/27 01:00:54;;;;;;;;;;;;;;;;;;5021960;28;874;-68
2022/09/27 01:03:40;;;;;;;;;;;;;;;;;;5022132;28;788;-68
2022/09/27 01:06:06;;;;;;;;;;;;;;;;;;5007382;28;1771;-68
2022/09/27 01:08:32;;;;;;;;;;;;;;;;;;5022131;28;831;-68
2022/09/27 01:11:12;;;;;;;;;;;;;;;;;;5021567;28;965;-68
2022/09/27 01:13:46;;;;;;;;;;;;;;;;;;5021974;28;1902;-68
2022/09/27 01:16:17;;;;;;;;;;;;;;;;;;5021294;28;1172;-68
2022/09/27 01:18:48;;;;;;;;;;;;;;;;;;5022111;28;774;-68
2022/09/27 01:21:32;;;;;;;;;;;;;;;;;;5021642;28;1048;-68
2022/09/27 01:24:15;;;;;;;;;;;;;;;;;;5021823;28;902;-68
2022/09/27 01:26:40;;;;;;;;;;;;;;;;;;5021020;28;1201;-68
2022/09/27 01:29:10;;;;;;;;;;;;;;;;;;5021668;28;910;-68
2022/09/27 01:31:41;;;;;;;;;;;;;;;;;;5021232;28;894;-68
2022/09/27 01:34:06;;;;;;;;;;;;;;;;;;5021281;28;1906;-69
2022/09/27 01:36:50;;;;;;;;;;;;;;;;;;5020955;28;1160;-68
2022/09/27 01:39:21;;;;;;;;;;;;;;;;;;5021573;28;780;-68
2022/09/27 01:41:50;;;;;;;;;;;;;;;;;;5021409;28;799;-69
2022/09/27 01:44:27;;;;;;;;;;;;;;;;;;5021403;28;875;-68
2022/09/27 01:46:54;;;;;;;;;;;;;;;;;;5021138;28;1204;-68
2022/09/27 01:49:42;;;;;;;;;;;;;;;;;;5021631;28;851;-68
2022/09/27 01:52:08;;;;;;;;;;;;;;;;;;5021296;28;906;-68
2022/09/27 01:54:39;;;;;;;;;;;;;;;;;;5021128;28;1946;-69
2022/09/27 01:57:05;;;;;;;;;;;;;;;;;;5021065;28;1220;-68
2022/09/27 01:59:37;;;;;;;;;;;;;;;;;;5021319;28;918;-68
2022/09/27 02:02:06;;;;;;;;;;;;;;;;;;5021042;28;1013;-68
2022/09/27 02:04:32;;;;;;;;;;;;;;;;;;5021043;28;902;-68
2022/09/27 02:07:04;;;;;;;;;;;;;;;;;;5020893;28;1235;-68
2022/09/27 02:09:29;;;;;;;;;;;;;;;;;;5021342;28;891;-68
2022/09/27 02:11:59;;;;;;;;;;;;;;;;;;5021063;28;839;-68
2022/09/27 02:14:29;;;;;;;;;;;;;;;;;;5020887;28;1893;-68
2022/09/27 02:17:13;;;;;;;;;;;;;;;;;;5020650;28;1247;-68
2022/09/27 02:19:57;;;;;;;;;;;;;;;;;;5021070;28;827;-68
2022/09/27 02:22:22;;;;;;;;;;;;;;;;;;5020899;28;930;-69
2022/09/27 02:25:06;;;;;;;;;;;;;;;;;;5020713;28;840;-69
2022/09/27 02:27:36;;;;;;;;;;;;;;;;;;5020687;28;1227;-69
2022/09/27 02:30:07;;;;;;;;;;;;;;;;;;5020863;28;1037;-69
2022/09/27 02:32:33;;;;;;;;;;;;;;;;;;5020728;28;862;-69
2022/09/27 02:35:00;;;;;;;;;;;;;;;;;;5020541;28;1961;-69
2022/09/27 02:37:25;;;;;;;;;;;;;;;;;;5020397;28;1157;-69
2022/09/27 02:39:50;;;;;;;;;;;;;;;;;;5020906;28;906;-69
2022/09/27 02:42:15;;;;;;;;;;;;;;;;;;5020630;28;895;-69
2022/09/27 02:44:41;;;;;;;;;;;;;;;;;;5021645;28;875;-69
2022/09/27 02:47:26;;;;;;;;;;;;;;;;;;5023885;28;1164;-69
2022/09/27 02:50:15;;;;;;;;;;;;;;;;;;5023350;28;1696;-69
2022/09/27 02:52:45;;;;;;;;;;;;;;;;;;5024218;28;1898;-69
2022/09/27 02:55:11;;;;;;;;;;;;;;;;;;5023694;28;993;-69
2022/09/27 02:57:48;;;;;;;;;;;;;;;;;;5023654;28;1212;-69
2022/09/27 03:00:18;;;;;;;;;;;;;;;;;;5023841;28;804;-69
2022/09/27 03:02:58;;;;;;;;;;;;;;;;;;5024112;28;867;-69
2022/09/27 03:05:25;;;;;;;;;;;;;;;;;;5023574;28;1060;-69
2022/09/27 03:07:50;;;;;;;;;;;;;;;;;;5022446;28;1215;-68
2022/09/27 03:10:17;;;;;;;;;;;;;;;;;;5023856;28;803;-69
2022/09/27 03:12:43;;;;;;;;;;;;;;;;;;5023700;28;1963;-69
2022/09/27 03:15:09;;;;;;;;;;;;;;;;;;5023403;28;803;-69
2022/09/27 03:17:35;;;;;;;;;;;;;;;;;;5023958;28;1212;-69
2022/09/27 03:20:00;;;;;;;;;;;;;;;;;;5023539;28;863;-69
2022/09/27 03:22:25;;;;;;;;;;;;;;;;;;5023447;28;941;-69
2022/09/27 03:24:51;;;;;;;;;;;;;;;;;;5023211;28;795;-69
2022/09/27 03:27:16;;;;;;;;;;;;;;;;;;5023421;28;1153;-68
2022/09/27 03:29:41;;;;;;;;;;;;;;;;;;5022085;28;1472;-68
2022/09/27 03:32:07;;;;;;;;;;;;;;;;;;5023688;28;858;-69
2022/09/27 03:34:32;;;;;;;;;;;;;;;;;;5022736;28;1972;-69
2022/09/27 03:36:57;;;;;;;;;;;;;;;;;;5023099;28;1188;-69
2022/09/27 03:39:22;;;;;;;;;;;;;;;;;;5023362;28;883;-68
2022/09/27 03:41:48;;;;;;;;;;;;;;;;;;5023322;28;856;-69
2022/09/27 03:44:13;;;;;;;;;;;;;;;;;;5023104;28;997;-68
2022/09/27 03:46:38;;;;;;;;;;;;;;;;;;5022856;28;1250;-68
2022/09/27 03:49:03;;;;;;;;;;;;;;;;;;5022971;28;857;-68
2022/09/27 03:51:29;;;;;;;;;;;;;;;;;;5023620;28;886;-69
2022/09/27 03:53:54;;;;;;;;;;;;;;;;;;5022824;28;1959;-69
2022/09/27 03:56:19;;;;;;;;;;;;;;;;;;5022265;28;1246;-69
2022/09/27 03:58:44;;;;;;;;;;;;;;;;;;5022841;28;942;-69
2022/09/27 04:01:09;;;;;;;;;;;;;;;;;;5023074;28;886;-69
2022/09/27 04:03:35;;;;;;;;;;;;;;;;;;5023020;28;890;-69
2022/09/27 04:06:01;;;;;;;;;;;;;;;;;;5022652;28;1180;-69
2022/09/27 04:08:26;;;;;;;;;;;;;;;;;;5022903;28;898;-69
2022/09/27 04:10:51;;;;;;;;;;;;;;;;;;5022588;28;851;-69
2022/09/27 04:13:16;;;;;;;;;;;;;;;;;;5022967;28;1967;-69
2022/09/27 04:15:42;;;;;;;;;;;;;;;;;;5022394;28;981;-68
2022/09/27 04:18:07;;;;;;;;;;;;;;;;;;5022632;28;1172;-69
2022/09/27 04:20:33;;;;;;;;;;;;;;;;;;5022596;28;862;-69
2022/09/27 04:22:58;;;;;;;;;;;;;;;;;;5023019;28;803;-69
2022/09/27 04:25:23;;;;;;;;;;;;;;;;;;5022236;28;796;-69
2022/09/27 04:27:53;;;;;;;;;;;;;;;;;;5022378;28;1243;-69
2022/09/27 04:30:18;;;;;;;;;;;;;;;;;;5022672;28;929;-69
2022/09/27 04:32:44;;;;;;;;;;;;;;;;;;5022501;28;1906;-69
2022/09/27 04:37:53;;;;;;;;;;;;;;;;;;5022763;28;1232;-69
2022/09/27 04:40:21;;;;;;;;;;;;;;;;;;5022192;28;990;-69
2022/09/27 04:42:46;;;;;;;;;;;;;;;;;;5022325;28;882;-68
2022/09/27 04:45:12;;;;;;;;;;;;;;;;;;5021944;28;887;-69
2022/09/27 04:47:41;;;;;;;;;;;;;;;;;;5022116;28;1263;-69
2022/09/27 04:50:06;;;;;;;;;;;;;;;;;;5022186;28;989;-69
2022/09/27 04:52:31;;;;;;;;;;;;;;;;;;5022257;28;859;-69
2022/09/27 04:54:56;;;;;;;;;;;;;;;;;;5020283;28;1949;-69
2022/09/27 04:57:22;;;;;;;;;;;;;;;;;;5022160;28;1258;-69
2022/09/27 04:59:50;;;;;;;;;;;;;;;;;;5022047;28;1037;-69
2022/09/27 05:02:15;;;;;;;;;;;;;;;;;;5022160;28;767;-69
2022/09/27 05:04:40;;;;;;;;;;;;;;;;;;5021871;28;854;-69
2022/09/27 05:07:06;;;;;;;;;;;;;;;;;;5020800;28;1278;-69
2022/09/27 05:09:31;;;;;;;;;;;;;;;;;;5021822;28;973;-69
2022/09/27 05:11:56;;;;;;;;;;;;;;;;;;5021820;28;895;-69
2022/09/27 05:14:21;;;;;;;;;;;;;;;;;;5021626;28;1894;-68
2022/09/27 05:16:46;;;;;;;;;;;;;;;;;;5021543;28;1179;-69
2022/09/27 05:19:11;;;;;;;;;;;;;;;;;;5021769;28;930;-69
2022/09/27 05:21:37;;;;;;;;;;;;;;;;;;5021729;28;868;-69
2022/09/27 05:24:02;;;;;;;;;;;;;;;;;;5021721;28;961;-69
2022/09/27 05:26:27;;;;;;;;;;;;;;;;;;5021292;28;1227;-69
2022/09/27 05:28:52;;;;;;;;;;;;;;;;;;5021558;28;850;-69
2022/09/27 05:31:18;;;;;;;;;;;;;;;;;;5021526;28;803;-69
2022/09/27 05:33:43;;;;;;;;;;;;;;;;;;5021601;28;1906;-68
2022/09/27 05:36:08;;;;;;;;;;;;;;;;;;5021060;28;1191;-68
2022/09/27 05:38:34;;;;;;;;;;;;;;;;;;5021409;28;922;-69
2022/09/27 05:40:59;;;;;;;;;;;;;;;;;;5021349;28;849;-69
2022/09/27 05:43:24;;;;;;;;;;;;;;;;;;5021412;28;874;-69
2022/09/27 05:45:51;;;;;;;;;;;;;;;;;;5020956;28;899;-68
2022/09/27 05:48:16;;;;;;;;;;;;;;;;;;5021306;28;1214;-69
2022/09/27 05:50:42;;;;;;;;;;;;;;;;;;5021293;28;1038;-69
2022/09/27 05:53:08;;;;;;;;;;;;;;;;;;5021033;28;1949;-68
2022/09/27 05:55:33;;;;;;;;;;;;;;;;;;5021232;28;879;-69
2022/09/27 05:58:00;;;;;;;;;;;;;;;;;;5020955;28;1262;-69
2022/09/27 06:00:25;;;;;;;;;;;;;;;;;;5021256;28;815;-69
2022/09/27 06:03:01;;;;;;;;;;;;;;;;;;5021251;28;791;-69
2022/09/27 06:05:28;;;;;;;;;;;;;;;;;;5020909;28;783;-68
2022/09/27 06:08:00;;;;;;;;;;;;;;;;;;5021006;28;1179;-68
2022/09/27 06:10:26;;;;;;;;;;;;;;;;;;5021301;28;775;-69
2022/09/27 06:12:51;;;;;;;;;;;;;;;;;;5021212;28;1961;-69
2022/09/27 06:15:16;;;;;;;;;;;;;;;;;;5020689;28;787;-69
2022/09/27 06:17:42;;;;;;;;;;;;;;;;;;5020777;28;1172;-69
2022/09/27 06:20:08;;;;;;;;;;;;;;;;;;5024203;28;803;-69
2022/09/27 06:22:33;;;;;;;;;;;;;;;;;;5024478;28;827;-68
2022/09/27 06:24:59;;;;;;;;;;;;;;;;;;5024285;28;997;-69
2022/09/27 06:27:25;;;;;;;;;;;;;;;;;;5024302;28;1176;-68
2022/09/27 06:29:50;;;;;;;;;;;;;;;;;;5024368;28;882;-68
2022/09/27 06:32:15;;;;;;;;;;;;;;;;;;5024127;28;796;-68
2022/09/27 06:34:41;;;;;;;;;;;;;;;;;;5024170;28;1965;-68
2022/09/27 06:37:06;;;;;;;;;;;;;;;;;;5023966;28;1275;-68
2022/09/27 06:39:33;;;;;;;;;;;;;;;;;;5024339;28;870;-68
2022/09/27 06:41:58;;;;;;;;;;;;;;;;;;5024193;28;831;-68
2022/09/27 06:44:24;;;;;;;;;;;;;;;;;;5024038;28;811;-68
2022/09/27 06:46:50;;;;;;;;;;;;;;;;;;5023953;28;1286;-68
2022/09/27 06:49:15;;;;;;;;;;;;;;;;;;5023913;28;930;-68
2022/09/27 06:51:41;;;;;;;;;;;;;;;;;;5024070;28;898;-68
2022/09/27 06:54:06;;;;;;;;;;;;;;;;;;5023974;28;1957;-68
2022/09/27 06:56:31;;;;;;;;;;;;;;;;;;5023773;28;1133;-68
2022/09/27 07:01:40;;;;;;;;;;;;;;;;;;5024076;28;625;-68
2022/09/27 07:04:06;;;;;;;;;;;;;;;;;;5023670;28;1048;-68
2022/09/27 07:06:31;;;;;;;;;;;;;;;;;;5023583;28;1259;-68
2022/09/27 07:08:56;;;;;;;;;;;;;;;;;;5023695;28;934;-68
2022/09/27 07:11:22;;;;;;;;;;;;;;;;;;5023860;28;921;-68
2022/09/27 07:13:49;;;;;;;;;;;;;;;;;;5023523;28;1906;-68
2022/09/27 07:16:15;;;;;;;;;;;;;;;;;;5023447;28;1270;-69
2022/09/27 07:18:41;;;;;;;;;;;;;;;;;;5023682;28;783;-68
2022/09/27 07:21:07;;;;;;;;;;;;;;;;;;5023953;28;819;-68
2022/09/27 07:23:32;;;;;;;;;;;;;;;;;;5023577;28;799;-68
2022/09/27 07:26:03;;;;;;;;;;;;;;;;;;5021992;28;1152;-68
2022/09/27 07:28:28;;;;;;;;;;;;;;;;;;5023542;28;869;-68
2022/09/27 07:30:54;;;;;;;;;;;;;;;;;;5022657;28;935;-68
2022/09/27 07:33:19;;;;;;;;;;;;;;;;;;5023357;28;1976;-68
2022/09/27 07:35:45;;;;;;;;;;;;;;;;;;5023160;28;799;-68
2022/09/27 07:38:12;;;;;;;;;;;;;;;;;;5023111;28;1254;-68
2022/09/27 07:40:37;;;;;;;;;;;;;;;;;;5023328;28;807;-68
2022/09/27 07:43:03;;;;;;;;;;;;;;;;;;5023312;28;807;-68
2022/09/27 07:45:29;;;;;;;;;;;;;;;;;;5023114;28;835;-67
2022/09/27 07:47:54;;;;;;;;;;;;;;;;;;5023203;28;1287;-68
2022/09/27 07:50:20;;;;;;;;;;;;;;;;;;5022998;28;894;-68
2022/09/27 07:52:46;;;;;;;;;;;;;;;;;;5023147;28;973;-68
2022/09/27 07:55:12;;;;;;;;;;;;;;;;;;5022554;28;1894;-68
2022/09/27 07:57:38;;;;;;;;;;;;;;;;;;5023355;28;1271;-68
2022/09/27 08:00:04;;;;;;;;;;;;;;;;;;5022882;28;831;-69
2022/09/27 08:02:32;;;;;;;;;;;;;;;;;;5023313;28;787;-68
2022/09/27 08:04:58;;;;;;;;;;;;;;;;;;5022934;28;819;-68
2022/09/27 08:07:23;;;;;;;;;;;;;;;;;;5022697;28;1187;-68
2022/09/27 08:09:48;;;;;;;;;;;;;;;;;;5022855;28;753;-68
2022/09/27 08:12:14;;;;;;;;;;;;;;;;;;5022766;28;852;-68
2022/09/27 08:14:39;;;;;;;;;;;;;;;;;;5022499;28;1894;-68
2022/09/27 08:17:04;;;;;;;;;;;;;;;;;;5022677;28;1176;-68
2022/09/27 08:19:30;;;;;;;;;;;;;;;;;;5022530;28;906;-68
2022/09/27 08:21:55;;;;;;;;;;;;;;;;;;5022663;28;819;-68
2022/09/27 08:24:20;;;;;;;;;;;;;;;;;;5022605;28;800;-68
2022/09/27 08:26:46;;;;;;;;;;;;;;;;;;5022414;28;1251;-68
2022/09/27 08:29:11;;;;;;;;;;;;;;;;;;5022464;28;941;-68
2022/09/27 08:31:37;;;;;;;;;;;;;;;;;;5022439;28;889;-68
2022/09/27 08:34:02;;;;;;;;;;;;;;;;;;5022507;28;1894;-68
2022/09/27 08:36:27;;;;;;;;;;;;;;;;;;5021991;28;1262;-69
2022/09/27 08:38:56;;;;;;;;;;;;;;;;;;5022421;28;855;-68
2022/09/27 08:41:24;;;;;;;;;;;;;;;;;;5022174;28;799;-68
2022/09/27 08:43:55;;;;;;;;;;;;;;;;;;5022386;28;807;-68
2022/09/27 08:46:33;;;;;;;;;;;;;;;;;;5022226;28;1180;-68
2022/09/27 08:49:04;;;;;;;;;;;;;;;;;;5022514;28;815;-68
2022/09/27 08:51:30;;;;;;;;;;;;;;;;;;5021076;28;870;-69
2022/09/27 08:54:00;;;;;;;;;;;;;;;;;;5022212;28;1898;-68
2022/09/27 08:56:25;;;;;;;;;;;;;;;;;;5021896;28;1255;-68
2022/09/27 08:58:54;;;;;;;;;;;;;;;;;;5022267;28;949;-69
2022/09/27 09:01:20;;;;;;;;;;;;;;;;;;5021862;28;973;-68
2022/09/27 09:03:48;;;;;;;;;;;;;;;;;;5022356;28;811;-68
2022/09/27 09:06:23;;;;;;;;;;;;;;;;;;5021774;28;1281;-68
2022/09/27 09:09:03;;;;;;;;;;;;;;;;;;5022073;28;858;-68
2022/09/27 09:14:45;;;;;;;;;;;;;;;;;;5022005;28;1969;-68
2022/09/27 09:17:23;;;;;;;;;;;;;;;;;;5021958;28;1184;-68
2022/09/27 09:19:58;;;;;;;;;;;;;;;;;;5021897;28;1060;-68
2022/09/27 09:22:33;;;;;;;;;;;;;;;;;;5021775;28;1060;-68
2022/09/27 09:25:06;;;;;;;;;;;;;;;;;;5021476;28;878;-68
2022/09/27 09:27:31;;;;;;;;;;;;;;;;;;5021568;28;1192;-68
2022/09/27 09:30:04;;;;;;;;;;;;;;;;;;5020278;28;1395;-68
2022/09/27 09:32:43;;;;;;;;;;;;;;;;;;5021831;28;894;-68
2022/09/27 09:35:19;;;;;;;;;;;;;;;;;;5021412;28;1894;-69
2022/09/27 09:37:47;;;;;;;;;;;;;;;;;;5021567;28;1184;-68
2022/09/27 09:40:15;;;;;;;;;;;;;;;;;;5021265;28;819;-68
2022/09/27 09:43:01;;;;;;;;;;;;;;;;;;5021359;28;1006;-68
2022/09/27 09:45:32;;;;;;;;;;;;;;;;;;5021435;28;1044;-68
2022/09/27 09:48:14;;;;;;;;;;;;;;;;;;5021233;28;1160;-68
2022/09/27 09:50:42;;;;;;;;;;;;;;;;;;5021197;28;823;-68
2022/09/27 09:53:16;;;;;;;;;;;;;;;;;;5020858;28;1890;-68
2022/09/27 09:55:44;;;;;;;;;;;;;;;;;;5021295;28;807;-68
2022/09/27 09:58:12;;;;;;;;;;;;;;;;;;5021899;28;1231;-69
2022/09/27 10:00:39;;;;;;;;;;;;;;;;;;5021400;28;800;-69
2022/09/27 10:03:04;;;;;;;;;;;;;;;;;;5021149;28;851;-68
2022/09/27 10:05:29;;;;;;;;;;;;;;;;;;5020948;28;1055;-68
2022/09/27 10:07:57;;;;;;;;;;;;;;;;;;5021210;28;1188;-69
2022/09/27 10:10:22;;;;;;;;;;;;;;;;;;5021121;28;882;-68
2022/09/27 10:12:48;;;;;;;;;;;;;;;;;;5021003;28;795;-68
2022/09/27 10:15:16;;;;;;;;;;;;;;;;;;5020989;28;1894;-68
2022/09/27 10:17:43;;;;;;;;;;;;;;;;;;5021515;28;1184;-68
2022/09/27 10:20:15;;;;;;;;;;;;;;;;;;5021541;28;824;-69
2022/09/27 10:22:43;;;;;;;;;;;;;;;;;;5019914;28;1568;-68
2022/09/27 10:25:09;;;;;;;;;;;;;;;;;;5020613;28;1485;-68
2022/09/27 10:27:46;;;;;;;;;;;;;;;;;;5020737;28;1259;-68
2022/09/27 10:30:25;;;;;;;;;;;;;;;;;;5020775;28;890;-68
2022/09/27 10:32:52;;;;;;;;;;;;;;;;;;5020833;28;945;-68
2022/09/27 10:35:18;;;;;;;;;;;;;;;;;;5020856;28;1894;-68
2022/09/27 10:37:44;;;;;;;;;;;;;;;;;;5020845;28;1188;-69
2022/09/27 10:40:24;;;;;;;;;;;;;;;;;;5020946;28;870;-68
2022/09/27 10:42:49;;;;;;;;;;;;;;;;;;5020537;28;823;-68
2022/09/27 10:45:28;;;;;;;;;;;;;;;;;;5019232;28;1397;-68
2022/09/27 10:47:54;;;;;;;;;;;;;;;;;;5020777;28;1161;-68
2022/09/27 10:50:25;;;;;;;;;;;;;;;;;;5020669;28;831;-68
2022/09/27 10:52:59;;;;;;;;;;;;;;;;;;5020798;28;901;-68
2022/09/27 10:55:26;;;;;;;;;;;;;;;;;;5020963;28;866;-68
2022/09/27 10:57:52;;;;;;;;;;;;;;;;;;5020729;28;1228;-68
2022/09/27 11:00:31;;;;;;;;;;;;;;;;;;5020463;28;819;-68
2022/09/27 11:02:57;;;;;;;;;;;;;;;;;;5020683;28;814;-69
2022/09/27 11:05:24;;;;;;;;;;;;;;;;;;5020891;28;842;-69
2022/09/27 11:07:53;;;;;;;;;;;;;;;;;;5023714;28;1286;-68
2022/09/27 11:10:33;;;;;;;;;;;;;;;;;;5022399;28;902;-68
2022/09/27 11:13:05;;;;;;;;;;;;;;;;;;5023791;28;1894;-68
2022/09/27 11:15:32;;;;;;;;;;;;;;;;;;5023626;28;811;-69
2022/09/27 11:18:06;;;;;;;;;;;;;;;;;;5023638;28;1164;-69
2022/09/27 11:20:50;;;;;;;;;;;;;;;;;;5023546;28;897;-68
2022/09/27 11:23:18;;;;;;;;;;;;;;;;;;5023837;28;878;-68
2022/09/27 11:26:02;;;;;;;;;;;;;;;;;;5023454;28;985;-68
2022/09/27 11:28:46;;;;;;;;;;;;;;;;;;5023418;28;944;-68
2022/09/27 11:31:17;;;;;;;;;;;;;;;;;;5023124;28;1035;-68
2022/09/27 11:34:05;;;;;;;;;;;;;;;;;;5023361;28;1969;-69
2022/09/27 11:36:46;;;;;;;;;;;;;;;;;;5022851;28;1391;-68
2022/09/27 11:39:30;;;;;;;;;;;;;;;;;;5023347;28;1048;-68
2022/09/27 11:42:08;;;;;;;;;;;;;;;;;;5023106;28;728;-69
2022/09/27 11:44:37;;;;;;;;;;;;;;;;;;5023173;28;775;-68
2022/09/27 11:47:21;;;;;;;;;;;;;;;;;;5023014;28;1260;-68
2022/09/27 11:50:01;;;;;;;;;;;;;;;;;;5022834;28;960;-69
2022/09/27 11:52:35;;;;;;;;;;;;;;;;;;5022727;28;922;-68
2022/09/27 11:55:01;;;;;;;;;;;;;;;;;;5022334;28;1898;-69
2022/09/27 11:57:30;;;;;;;;;;;;;;;;;;5022465;28;1283;-69
2022/09/27 12:00:13;;;;;;;;;;;;;;;;;;5022405;28;816;-69
2022/09/27 12:02:45;;;;;;;;;;;;;;;;;;5022482;28;890;-68
2022/09/27 12:05:33;;;;;;;;;;;;;;;;;;5022556;28;871;-68
2022/09/27 12:08:12;;;;;;;;;;;;;;;;;;5011546;28;1914;-68
2022/09/27 12:10:38;;;;;;;;;;;;;;;;;;5022270;28;867;-68
2022/09/27 12:13:03;;;;;;;;;;;;;;;;;;5022241;28;1910;-68
2022/09/27 12:15:32;;;;;;;;;;;;;;;;;;5021938;28;945;-68
2022/09/27 12:18:05;;;;;;;;;;;;;;;;;;5021919;28;1172;-68
2022/09/27 12:20:33;;;;;;;;;;;;;;;;;;5022301;28;962;-68
2022/09/27 12:23:01;;;;;;;;;;;;;;;;;;5022517;28;744;-68
2022/09/27 12:25:35;;;;;;;;;;;;;;;;;;5021835;28;860;-68
2022/09/27 12:28:16;;;;;;;;;;;;;;;;;;5022072;28;1247;-68
2022/09/27 12:30:45;;;;;;;;;;;;;;;;;;5022065;28;1040;-68
2022/09/27 12:33:33;;;;;;;;;;;;;;;;;;5021991;28;1930;-68
2022/09/27 12:36:01;;;;;;;;;;;;;;;;;;5020294;28;1255;-68
2022/09/27 12:38:33;;;;;;;;;;;;;;;;;;5022104;28;851;-68
2022/09/27 12:41:00;;;;;;;;;;;;;;;;;;5022042;28;740;-68
2022/09/27 12:43:32;;;;;;;;;;;;;;;;;;5021908;28;945;-68
2022/09/27 12:46:16;;;;;;;;;;;;;;;;;;5021442;28;1269;-68
2022/09/27 12:48:52;;;;;;;;;;;;;;;;;;5022091;28;906;-68
2022/09/27 12:51:19;;;;;;;;;;;;;;;;;;5021635;28;874;-68
2022/09/27 12:53:57;;;;;;;;;;;;;;;;;;5022128;28;1902;-68
2022/09/27 12:56:42;;;;;;;;;;;;;;;;;;5021217;28;1178;-68
2022/09/27 12:59:09;;;;;;;;;;;;;;;;;;5007970;28;1159;-68
2022/09/27 13:01:57;;;;;;;;;;;;;;;;;;5021858;28;883;-68
2022/09/27 13:04:36;;;;;;;;;;;;;;;;;;5021490;28;795;-68
2022/09/27 13:07:19;;;;;;;;;;;;;;;;;;5021280;28;1259;-68
2022/09/27 13:09:55;;;;;;;;;;;;;;;;;;5021614;28;1037;-68
2022/09/27 13:12:22;;;;;;;;;;;;;;;;;;5021512;28;796;-69
2022/09/27 13:14:53;;;;;;;;;;;;;;;;;;5021196;28;1957;-68
2022/09/27 13:17:55;;;;;;;;;;;;;;;;;;5021343;28;1164;-68
2022/09/27 13:20:35;;;;;;;;;;;;;;;;;;4941330;29;1370;-68
2022/09/27 13:23:01;;;;;;;;;;;;;;;;;;5012682;28;959;-69
2022/09/27 13:25:45;;;;;;;;;;;;;;;;;;5021239;28;796;-69
2022/09/27 13:28:32;;;;;;;;;;;;;;;;;;5020357;28;1160;-69
2022/09/27 13:31:04;;;;;;;;;;;;;;;;;;5021351;28;860;-69
2022/09/27 13:33:31;;;;;;;;;;;;;;;;;;5020988;28;1965;-69
2022/09/27 13:36:07;;;;;;;;;;;;;;;;;;5020812;28;1271;-69
2022/09/27 13:38:32;;;;;;;;;;;;;;;;;;5021263;28;917;-69
2022/09/27 13:41:14;;;;;;;;;;;;;;;;;;5021014;28;772;-69
2022/09/27 13:43:46;;;;;;;;;;;;;;;;;;5020957;28;831;-69
2022/09/27 13:46:17;;;;;;;;;;;;;;;;;;5020700;28;1180;-69
2022/09/27 13:48:46;;;;;;;;;;;;;;;;;;5020962;28;772;-69
2022/09/27 13:51:21;;;;;;;;;;;;;;;;;;5020992;28;823;-70
2022/09/27 13:54:02;;;;;;;;;;;;;;;;;;5020670;28;1898;-70
2022/09/27 13:56:45;;;;;;;;;;;;;;;;;;5020681;28;1204;-70
2022/09/27 13:59:16;;;;;;;;;;;;;;;;;;5021138;28;799;-69
2022/09/27 14:01:45;;;;;;;;;;;;;;;;;;5020673;28;914;-70
2022/09/27 14:04:26;;;;;;;;;;;;;;;;;;5020708;28;1044;-69
2022/09/27 14:06:54;;;;;;;;;;;;;;;;;;5020689;28;1107;-70
2022/09/27 14:09:28;;;;;;;;;;;;;;;;;;5021023;28;1053;-70
2022/09/27 14:11:58;;;;;;;;;;;;;;;;;;5020608;28;791;-69
2022/09/27 14:14:25;;;;;;;;;;;;;;;;;;5000779;28;1890;-70
2022/09/27 14:16:51;;;;;;;;;;;;;;;;;;5000866;28;1270;-70
2022/09/27 14:19:18;;;;;;;;;;;;;;;;;;5000687;28;1003;-69
2022/09/27 14:21:44;;;;;;;;;;;;;;;;;;5001246;28;842;-69
2022/09/27 14:24:28;;;;;;;;;;;;;;;;;;5000958;28;819;-69
2022/09/27 14:27:16;;;;;;;;;;;;;;;;;;5000791;28;1263;-69
2022/09/27 14:29:48;;;;;;;;;;;;;;;;;;5000813;28;898;-69
2022/09/27 14:32:16;;;;;;;;;;;;;;;;;;5000663;28;819;-69
2022/09/27 14:34:41;;;;;;;;;;;;;;;;;;5000428;28;1969;-69
2022/09/27 14:37:32;;;;;;;;;;;;;;;;;;5000731;28;1192;-69
2022/09/27 14:40:03;;;;;;;;;;;;;;;;;;5001169;28;1301;-69
2022/09/27 14:42:31;;;;;;;;;;;;;;;;;;5003885;28;862;-69
2022/09/27 14:44:59;;;;;;;;;;;;;;;;;;5003889;28;791;-69
2022/09/27 14:47:26;;;;;;;;;;;;;;;;;;5003983;28;1262;-69
2022/09/27 14:49:54;;;;;;;;;;;;;;;;;;5004086;28;882;-69
2022/09/27 14:52:23;;;;;;;;;;;;;;;;;;5004222;28;744;-69
2022/09/27 14:55:14;;;;;;;;;;;;;;;;;;5003466;28;1898;-69
2022/09/27 14:57:44;;;;;;;;;;;;;;;;;;5002667;28;1239;-69
2022/09/27 15:00:18;;;;;;;;;;;;;;;;;;5004594;28;759;-69
2022/09/27 15:02:43;;;;;;;;;;;;;;;;;;5004888;28;826;-68
2022/09/27 15:05:13;;;;;;;;;;;;;;;;;;5003380;28;881;-69
2022/09/27 15:07:38;;;;;;;;;;;;;;;;;;5003646;28;1271;-69
2022/09/27 15:10:04;;;;;;;;;;;;;;;;;;5003740;28;796;-69
2022/09/27 15:12:29;;;;;;;;;;;;;;;;;;5003792;28;873;-69
2022/09/27 15:14:57;;;;;;;;;;;;;;;;;;5003189;28;1894;-68
2022/09/27 15:17:22;;;;;;;;;;;;;;;;;;5003522;28;1276;-69
2022/09/27 15:19:57;;;;;;;;;;;;;;;;;;5003603;28;898;-68
2022/09/27 15:22:31;;;;;;;;;;;;;;;;;;5003546;28;811;-69
2022/09/27 15:25:03;;;;;;;;;;;;;;;;;;5003418;28;831;-69
2022/09/27 15:27:28;;;;;;;;;;;;;;;;;;5003436;28;1306;-69
2022/09/27 15:29:54;;;;;;;;;;;;;;;;;;5003545;28;831;-69
2022/09/27 15:32:21;;;;;;;;;;;;;;;;;;5003313;28;989;-69
2022/09/27 15:34:46;;;;;;;;;;;;;;;;;;5003087;28;2022;-69
2022/09/27 15:37:26;;;;;;;;;;;;;;;;;;5003331;28;1207;-69
2022/09/27 15:39:51;;;;;;;;;;;;;;;;;;5003298;28;791;-68
2022/09/27 15:42:18;;;;;;;;;;;;;;;;;;5003475;28;835;-68
2022/09/27 15:44:53;;;;;;;;;;;;;;;;;;5002687;28;819;-69
2022/09/27 15:47:33;;;;;;;;;;;;;;;;;;5003025;28;1164;-69
2022/09/27 15:50:18;;;;;;;;;;;;;;;;;;5003071;28;835;-68
2022/09/27 15:52:46;;;;;;;;;;;;;;;;;;5002393;28;1006;-69
2022/09/27 15:55:11;;;;;;;;;;;;;;;;;;5002401;28;1956;-69
2022/09/27 15:57:37;;;;;;;;;;;;;;;;;;5003089;28;1591;-69
2022/09/27 16:00:03;;;;;;;;;;;;;;;;;;5003356;28;942;-69
2022/09/27 16:02:28;;;;;;;;;;;;;;;;;;5002883;28;808;-69
2022/09/27 16:04:53;;;;;;;;;;;;;;;;;;5018092;28;1106;-69
2022/09/27 16:07:18;;;;;;;;;;;;;;;;;;5022444;28;1168;-69
2022/09/27 16:09:44;;;;;;;;;;;;;;;;;;5022239;28;974;-69
2022/09/27 16:12:09;;;;;;;;;;;;;;;;;;5022738;28;780;-69
2022/09/27 16:14:34;;;;;;;;;;;;;;;;;;5023663;28;1901;-69
2022/09/27 16:16:59;;;;;;;;;;;;;;;;;;5030085;28;1259;-69
2022/09/27 16:19:24;;;;;;;;;;;;;;;;;;5023380;28;830;-69
2022/09/27 16:21:50;;;;;;;;;;;;;;;;;;5022264;28;1056;-69
2022/09/27 16:24:16;;;;;;;;;;;;;;;;;;5022169;28;875;-69
2022/09/27 16:26:41;;;;;;;;;;;;;;;;;;5021734;28;1125;-69
2022/09/27 16:29:11;;;;;;;;;;;;;;;;;;5022254;28;1029;-69
2022/09/27 16:31:36;;;;;;;;;;;;;;;;;;5022155;28;795;-69
2022/09/27 16:34:01;;;;;;;;;;;;;;;;;;5021931;28;1894;-69
2022/09/27 16:36:26;;;;;;;;;;;;;;;;;;5021603;28;1266;-69
2022/09/27 16:38:52;;;;;;;;;;;;;;;;;;5022093;28;883;-69
2022/09/27 16:41:18;;;;;;;;;;;;;;;;;;5022485;28;850;-69
2022/09/27 16:43:44;;;;;;;;;;;;;;;;;;5021878;28;861;-69
2022/09/27 16:46:10;;;;;;;;;;;;;;;;;;5021568;28;1184;-69
2022/09/27 16:48:35;;;;;;;;;;;;;;;;;;5022035;28;795;-69
2022/09/27 16:53:54;;;;;;;;;;;;;;;;;;5022167;28;1898;-69
2022/09/27 16:56:19;;;;;;;;;;;;;;;;;;5020116;28;1283;-69
2022/09/27 16:58:44;;;;;;;;;;;;;;;;;;5021786;28;851;-69
2022/09/27 17:01:10;;;;;;;;;;;;;;;;;;5021765;28;855;-69
2022/09/27 17:03:36;;;;;;;;;;;;;;;;;;5020368;28;891;-69
2022/09/27 17:06:02;;;;;;;;;;;;;;;;;;5021472;28;1259;-69
2022/09/27 17:08:28;;;;;;;;;;;;;;;;;;5021942;28;796;-70
2022/09/27 17:10:53;;;;;;;;;;;;;;;;;;5021595;28;795;-69
2022/09/27 17:13:18;;;;;;;;;;;;;;;;;;5021735;28;1890;-70
2022/09/27 17:15:43;;;;;;;;;;;;;;;;;;5020821;28;808;-70
2022/09/27 17:18:09;;;;;;;;;;;;;;;;;;5021365;28;1239;-69
2022/09/27 17:20:34;;;;;;;;;;;;;;;;;;5021288;28;920;-70
2022/09/27 17:22:59;;;;;;;;;;;;;;;;;;5021388;28;938;-70
2022/09/27 17:25:24;;;;;;;;;;;;;;;;;;5021172;28;812;-70
2022/09/27 17:27:50;;;;;;;;;;;;;;;;;;5021049;28;1152;-70
2022/09/27 17:30:15;;;;;;;;;;;;;;;;;;5021185;28;838;-69
2022/09/27 17:32:40;;;;;;;;;;;;;;;;;;5021278;28;850;-70
2022/09/27 17:35:08;;;;;;;;;;;;;;;;;;5020816;28;1898;-70
2022/09/27 17:37:33;;;;;;;;;;;;;;;;;;5021112;28;1254;-70
2022/09/27 17:39:58;;;;;;;;;;;;;;;;;;5021103;28;887;-70